sensor_id;sensor_type;location;lat;lon;timestamp;P1;durP1;ratioP1;P2;durP2;ratioP2
24086;SDS011;22893;50.572;7.234;2022-11-20T02:37:56;3.40;;;1.67;;
24086;SDS011;22893;50.572;7.234;2022-11-20T02:40:25;3.47;;;1.90;;
24086;SDS011;22893;50.572;7.234;2022-11-20T02:42:54;3.30;;;1.80;;
24086;SDS011;22893;50.572;7.234;2022-11-20T02:45:22;3.77;;;2.10;;
24086;SDS011;22893;50.572;7.234;2022-11-20T02:47:51;3.33;;;2.20;;
24086;SDS011;22893;50.572;7.234;2022-11-20T02:50:19;2.25;;;1.62;;
24086;SDS011;22893;50.572;7.234;2022-11-20T02:52:46;2.72;;;1.70;;
24086;SDS011;22893;50.572;7.234;2022-11-20T02:55:14;3.52;;;2.25;;
24086;SDS011;22893;50.572;7.234;2022-11-20T02:57:41;2.98;;;1.80;;
24086;SDS011;22893;50.572;7.234;2022-11-20T03:00:09;3.52;;;2.00;;
24086;SDS011;22893;50.572;7.234;2022-11-20T03:02:38;3.67;;;1.85;;
24086;SDS011;22893;50.572;7.234;2022-11-20T03:05:05;4.65;;;2.15;;
24086;SDS011;22893;50.572;7.234;2022-11-20T03:07:34;4.03;;;1.92;;
24086;SDS011;22893;50.572;7.234;2022-11-20T03:10:01;4.00;;;1.67;;
24086;SDS011;22893;50.572;7.234;2022-11-20T03:12:29;3.47;;;2.20;;
24086;SDS011;22893;50.572;7.234;2022-11-20T03:14:57;3.75;;;1.80;;
24086;SDS011;22893;50.572;7.234;2022-11-20T03:17:25;4.00;;;2.15;;
24086;SDS011;22893;50.572;7.234;2022-11-20T03:19:52;2.75;;;1.60;;
24086;SDS011;22893;50.572;7.234;2022-11-20T03:22:20;3.72;;;1.98;;
24086;SDS011;22893;50.572;7.234;2022-11-20T03:24:47;2.52;;;1.70;;
24086;SDS011;22893;50.572;7.234;2022-11-20T03:27:15;4.00;;;2.02;;
24086;SDS011;22893;50.572;7.234;2022-11-20T03:29:43;3.62;;;1.92;;
24086;SDS011;22893;50.572;7.234;2022-11-20T03:32:10;3.25;;;1.60;;
24086;SDS011;22893;50.572;7.234;2022-11-20T03:34:38;5.05;;;2.40;;
24086;SDS011;22893;50.572;7.234;2022-11-20T03:37:05;3.85;;;2.25;;
24086;SDS011;22893;50.572;7.234;2022-11-20T03:39:33;3.60;;;1.70;;
24086;SDS011;22893;50.572;7.234;2022-11-20T03:42:01;2.77;;;1.80;;
24086;SDS011;22893;50.572;7.234;2022-11-20T03:44:28;4.10;;;2.10;;
24086;SDS011;22893;50.572;7.234;2022-11-20T03:46:56;4.12;;;2.10;;
24086;SDS011;22893;50.572;7.234;2022-11-20T03:49:23;4.22;;;2.42;;
24086;SDS011;22893;50.572;7.234;2022-11-20T03:51:51;4.35;;;2.42;;
24086;SDS011;22893;50.572;7.234;2022-11-20T03:54:18;3.30;;;1.80;;
24086;SDS011;22893;50.572;7.234;2022-11-20T03:56:46;2.77;;;1.80;;
24086;SDS011;22893;50.572;7.234;2022-11-20T03:59:13;2.95;;;1.70;;
24086;SDS011;22893;50.572;7.234;2022-11-20T04:01:41;4.92;;;2.22;;
24086;SDS011;22893;50.572;7.234;2022-11-20T04:04:08;4.28;;;1.98;;
24086;SDS011;22893;50.572;7.234;2022-11-20T04:06:36;3.60;;;2.10;;
24086;SDS011;22893;50.572;7.234;2022-11-20T04:09:05;3.75;;;1.92;;
24086;SDS011;22893;50.572;7.234;2022-11-20T04:11:34;3.62;;;2.37;;
24086;SDS011;22893;50.572;7.234;2022-11-20T04:14:03;3.00;;;1.65;;
24086;SDS011;22893;50.572;7.234;2022-11-20T04:16:34;2.98;;;1.90;;
24086;SDS011;22893;50.572;7.234;2022-11-20T04:19:03;4.53;;;2.37;;
24086;SDS011;22893;50.572;7.234;2022-11-20T04:21:32;3.58;;;2.25;;
24086;SDS011;22893;50.572;7.234;2022-11-20T04:24:00;4.37;;;2.10;;
24086;SDS011;22893;50.572;7.234;2022-11-20T04:26:28;4.40;;;1.82;;
24086;SDS011;22893;50.572;7.234;2022-11-20T04:28:57;4.05;;;2.20;;
24086;SDS011;22893;50.572;7.234;2022-11-20T04:31:31;3.75;;;2.15;;
24086;SDS011;22893;50.572;7.234;2022-11-20T04:34:00;5.58;;;2.47;;
24086;SDS011;22893;50.572;7.234;2022-11-20T04:36:30;3.60;;;1.80;;
24086;SDS011;22893;50.572;7.234;2022-11-20T04:38:59;3.75;;;2.08;;
24086;SDS011;22893;50.572;7.234;2022-11-20T04:41:30;3.55;;;2.15;;
24086;SDS011;22893;50.572;7.234;2022-11-20T04:44:00;3.42;;;1.87;;
24086;SDS011;22893;50.572;7.234;2022-11-20T04:46:30;4.65;;;2.00;;
24086;SDS011;22893;50.572;7.234;2022-11-20T04:48:59;3.00;;;2.00;;
24086;SDS011;22893;50.572;7.234;2022-11-20T04:51:27;6.28;;;2.10;;
24086;SDS011;22893;50.572;7.234;2022-11-20T04:53:54;2.77;;;1.52;;
24086;SDS011;22893;50.572;7.234;2022-11-20T04:56:22;4.53;;;1.98;;
24086;SDS011;22893;50.572;7.234;2022-11-20T04:58:50;4.20;;;1.87;;
24086;SDS011;22893;50.572;7.234;2022-11-20T05:01:19;2.72;;;1.60;;
24086;SDS011;22893;50.572;7.234;2022-11-20T05:03:48;3.83;;;2.08;;
24086;SDS011;22893;50.572;7.234;2022-11-20T05:06:18;2.65;;;1.67;;
24086;SDS011;22893;50.572;7.234;2022-11-20T05:08:46;4.03;;;2.47;;
24086;SDS011;22893;50.572;7.234;2022-11-20T05:11:15;3.92;;;1.95;;
24086;SDS011;22893;50.572;7.234;2022-11-20T05:13:44;3.65;;;2.25;;
24086;SDS011;22893;50.572;7.234;2022-11-20T05:16:13;4.30;;;2.27;;
24086;SDS011;22893;50.572;7.234;2022-11-20T05:18:42;2.65;;;1.70;;
24086;SDS011;22893;50.572;7.234;2022-11-20T05:21:11;2.83;;;1.98;;
24086;SDS011;22893;50.572;7.234;2022-11-20T05:23:39;4.08;;;1.80;;
24086;SDS011;22893;50.572;7.234;2022-11-20T05:26:11;3.72;;;1.87;;
24086;SDS011;22893;50.572;7.234;2022-11-20T05:28:47;4.53;;;2.30;;
24086;SDS011;22893;50.572;7.234;2022-11-20T05:31:17;4.28;;;1.92;;
24086;SDS011;22893;50.572;7.234;2022-11-20T05:33:46;4.10;;;2.42;;
24086;SDS011;22893;50.572;7.234;2022-11-20T05:36:14;3.65;;;2.00;;
24086;SDS011;22893;50.572;7.234;2022-11-20T05:38:42;5.47;;;2.42;;
24086;SDS011;22893;50.572;7.234;2022-11-20T05:41:14;4.30;;;2.35;;
24086;SDS011;22893;50.572;7.234;2022-11-20T05:43:41;3.33;;;2.00;;
24086;SDS011;22893;50.572;7.234;2022-11-20T05:46:10;4.60;;;2.27;;
24086;SDS011;22893;50.572;7.234;2022-11-20T05:48:39;3.90;;;2.17;;
24086;SDS011;22893;50.572;7.234;2022-11-20T05:51:09;3.70;;;2.15;;
24086;SDS011;22893;50.572;7.234;2022-11-20T05:53:38;3.40;;;1.92;;
24086;SDS011;22893;50.572;7.234;2022-11-20T05:56:07;3.85;;;2.27;;
24086;SDS011;22893;50.572;7.234;2022-11-20T05:58:37;3.47;;;2.25;;
24086;SDS011;22893;50.572;7.234;2022-11-20T06:01:10;5.33;;;2.08;;
24086;SDS011;22893;50.572;7.234;2022-11-20T06:03:38;2.92;;;1.92;;
24086;SDS011;22893;50.572;7.234;2022-11-20T06:06:09;4.17;;;2.25;;
24086;SDS011;22893;50.572;7.234;2022-11-20T06:08:36;4.62;;;2.10;;
24086;SDS011;22893;50.572;7.234;2022-11-20T06:13:51;4.22;;;2.35;;
24086;SDS011;22893;50.572;7.234;2022-11-20T06:16:19;3.83;;;2.40;;
24086;SDS011;22893;50.572;7.234;2022-11-20T06:18:47;4.03;;;2.10;;
24086;SDS011;22893;50.572;7.234;2022-11-20T06:21:16;4.17;;;2.40;;
24086;SDS011;22893;50.572;7.234;2022-11-20T06:23:46;3.62;;;2.22;;
24086;SDS011;22893;50.572;7.234;2022-11-20T06:26:15;2.65;;;1.47;;
24086;SDS011;22893;50.572;7.234;2022-11-20T06:28:44;5.25;;;2.27;;
24086;SDS011;22893;50.572;7.234;2022-11-20T06:31:13;5.30;;;2.00;;
24086;SDS011;22893;50.572;7.234;2022-11-20T06:33:42;11.03;;;4.25;;
24086;SDS011;22893;50.572;7.234;2022-11-20T06:36:10;12.25;;;6.15;;
24086;SDS011;22893;50.572;7.234;2022-11-20T06:38:39;14.05;;;7.15;;
24086;SDS011;22893;50.572;7.234;2022-11-20T06:41:10;8.43;;;4.67;;
24086;SDS011;22893;50.572;7.234;2022-11-20T06:43:40;5.62;;;2.75;;
24086;SDS011;22893;50.572;7.234;2022-11-20T06:46:09;4.17;;;2.42;;
24086;SDS011;22893;50.572;7.234;2022-11-20T06:48:38;3.87;;;2.10;;
24086;SDS011;22893;50.572;7.234;2022-11-20T06:51:07;5.53;;;2.55;;
24086;SDS011;22893;50.572;7.234;2022-11-20T06:53:35;6.28;;;2.50;;
24086;SDS011;22893;50.572;7.234;2022-11-20T06:56:03;6.20;;;2.95;;
24086;SDS011;22893;50.572;7.234;2022-11-20T06:58:31;5.00;;;2.77;;
24086;SDS011;22893;50.572;7.234;2022-11-20T07:01:04;4.40;;;2.30;;
24086;SDS011;22893;50.572;7.234;2022-11-20T07:03:30;4.75;;;2.33;;
24086;SDS011;22893;50.572;7.234;2022-11-20T07:05:58;4.15;;;2.17;;
24086;SDS011;22893;50.572;7.234;2022-11-20T07:08:28;5.03;;;2.47;;
24086;SDS011;22893;50.572;7.234;2022-11-20T07:10:57;4.92;;;2.72;;
24086;SDS011;22893;50.572;7.234;2022-11-20T07:13:29;5.80;;;2.42;;
24086;SDS011;22893;50.572;7.234;2022-11-20T07:16:00;5.00;;;2.95;;
24086;SDS011;22893;50.572;7.234;2022-11-20T07:18:29;7.47;;;2.62;;
24086;SDS011;22893;50.572;7.234;2022-11-20T07:21:01;6.28;;;2.17;;
24086;SDS011;22893;50.572;7.234;2022-11-20T07:23:29;5.62;;;2.65;;
24086;SDS011;22893;50.572;7.234;2022-11-20T07:25:56;4.72;;;2.27;;
24086;SDS011;22893;50.572;7.234;2022-11-20T07:28:25;5.55;;;3.00;;
24086;SDS011;22893;50.572;7.234;2022-11-20T07:30:52;6.22;;;2.40;;
24086;SDS011;22893;50.572;7.234;2022-11-20T07:33:20;5.20;;;2.62;;
24086;SDS011;22893;50.572;7.234;2022-11-20T07:35:48;4.92;;;2.52;;
24086;SDS011;22893;50.572;7.234;2022-11-20T07:38:15;7.10;;;2.83;;
24086;SDS011;22893;50.572;7.234;2022-11-20T07:40:43;7.65;;;3.42;;
24086;SDS011;22893;50.572;7.234;2022-11-20T07:43:11;6.80;;;2.67;;
24086;SDS011;22893;50.572;7.234;2022-11-20T07:45:38;8.63;;;3.70;;
24086;SDS011;22893;50.572;7.234;2022-11-20T07:48:06;7.92;;;2.80;;
24086;SDS011;22893;50.572;7.234;2022-11-20T07:50:33;7.05;;;2.50;;
24086;SDS011;22893;50.572;7.234;2022-11-20T07:53:02;6.28;;;2.65;;
24086;SDS011;22893;50.572;7.234;2022-11-20T07:55:30;7.95;;;2.80;;
24086;SDS011;22893;50.572;7.234;2022-11-20T07:57:58;6.00;;;2.80;;
24086;SDS011;22893;50.572;7.234;2022-11-20T08:00:26;5.95;;;2.83;;
24086;SDS011;22893;50.572;7.234;2022-11-20T08:02:54;4.65;;;2.45;;
24086;SDS011;22893;50.572;7.234;2022-11-20T08:05:21;4.75;;;2.52;;
24086;SDS011;22893;50.572;7.234;2022-11-20T08:07:49;5.47;;;3.12;;
24086;SDS011;22893;50.572;7.234;2022-11-20T08:10:17;4.95;;;2.77;;
24086;SDS011;22893;50.572;7.234;2022-11-20T08:12:45;8.25;;;4.50;;
24086;SDS011;22893;50.572;7.234;2022-11-20T08:15:32;6.95;;;2.70;;
24086;SDS011;22893;50.572;7.234;2022-11-20T08:18:06;6.95;;;3.52;;
24086;SDS011;22893;50.572;7.234;2022-11-20T08:20:30;7.65;;;2.85;;
24086;SDS011;22893;50.572;7.234;2022-11-20T08:22:58;4.50;;;2.50;;
24086;SDS011;22893;50.572;7.234;2022-11-20T08:25:27;11.20;;;3.52;;
24086;SDS011;22893;50.572;7.234;2022-11-20T08:27:59;5.78;;;3.12;;
24086;SDS011;22893;50.572;7.234;2022-11-20T08:30:28;4.72;;;2.62;;
24086;SDS011;22893;50.572;7.234;2022-11-20T08:33:00;5.05;;;3.40;;
24086;SDS011;22893;50.572;7.234;2022-11-20T08:35:32;6.62;;;3.05;;
24086;SDS011;22893;50.572;7.234;2022-11-20T08:38:02;9.40;;;4.03;;
24086;SDS011;22893;50.572;7.234;2022-11-20T08:40:31;7.28;;;2.85;;
24086;SDS011;22893;50.572;7.234;2022-11-20T08:42:59;7.75;;;3.00;;
24086;SDS011;22893;50.572;7.234;2022-11-20T08:45:26;7.12;;;3.25;;
24086;SDS011;22893;50.572;7.234;2022-11-20T08:47:59;8.85;;;3.17;;
24086;SDS011;22893;50.572;7.234;2022-11-20T08:50:24;9.35;;;2.77;;
24086;SDS011;22893;50.572;7.234;2022-11-20T08:52:52;6.67;;;2.62;;
24086;SDS011;22893;50.572;7.234;2022-11-20T08:55:19;8.48;;;3.58;;
24086;SDS011;22893;50.572;7.234;2022-11-20T08:57:47;14.10;;;6.00;;
24086;SDS011;22893;50.572;7.234;2022-11-20T09:00:15;17.73;;;6.62;;
24086;SDS011;22893;50.572;7.234;2022-11-20T09:02:43;23.70;;;7.72;;
24086;SDS011;22893;50.572;7.234;2022-11-20T09:05:10;24.50;;;7.35;;
24086;SDS011;22893;50.572;7.234;2022-11-20T09:07:38;19.70;;;8.10;;
24086;SDS011;22893;50.572;7.234;2022-11-20T09:10:07;20.90;;;7.28;;
24086;SDS011;22893;50.572;7.234;2022-11-20T09:12:35;23.02;;;7.85;;
24086;SDS011;22893;50.572;7.234;2022-11-20T09:15:03;16.82;;;7.37;;
24086;SDS011;22893;50.572;7.234;2022-11-20T09:17:31;21.87;;;7.90;;
24086;SDS011;22893;50.572;7.234;2022-11-20T09:19:58;17.35;;;7.05;;
24086;SDS011;22893;50.572;7.234;2022-11-20T09:22:26;19.20;;;7.42;;
24086;SDS011;22893;50.572;7.234;2022-11-20T09:24:53;22.07;;;7.08;;
24086;SDS011;22893;50.572;7.234;2022-11-20T09:27:21;20.65;;;7.95;;
24086;SDS011;22893;50.572;7.234;2022-11-20T09:29:48;18.55;;;7.62;;
24086;SDS011;22893;50.572;7.234;2022-11-20T09:32:16;20.12;;;7.28;;
24086;SDS011;22893;50.572;7.234;2022-11-20T09:34:44;14.45;;;6.83;;
24086;SDS011;22893;50.572;7.234;2022-11-20T09:37:11;12.68;;;5.65;;
24086;SDS011;22893;50.572;7.234;2022-11-20T09:39:39;18.30;;;6.65;;
24086;SDS011;22893;50.572;7.234;2022-11-20T09:42:13;17.07;;;6.65;;
24086;SDS011;22893;50.572;7.234;2022-11-20T09:47:42;13.08;;;5.80;;
24086;SDS011;22893;50.572;7.234;2022-11-20T09:50:32;15.58;;;6.30;;
24086;SDS011;22893;50.572;7.234;2022-11-20T09:52:47;10.98;;;5.67;;
24086;SDS011;22893;50.572;7.234;2022-11-20T09:55:23;19.23;;;6.72;;
24086;SDS011;22893;50.572;7.234;2022-11-20T09:57:52;13.13;;;5.17;;
24086;SDS011;22893;50.572;7.234;2022-11-20T10:00:20;14.00;;;5.37;;
24086;SDS011;22893;50.572;7.234;2022-11-20T10:02:55;17.80;;;6.20;;
24086;SDS011;22893;50.572;7.234;2022-11-20T10:08:11;13.53;;;5.80;;
24086;SDS011;22893;50.572;7.234;2022-11-20T10:10:56;13.80;;;5.53;;
24086;SDS011;22893;50.572;7.234;2022-11-20T10:13:52;10.50;;;4.22;;
24086;SDS011;22893;50.572;7.234;2022-11-20T10:19:02;11.18;;;5.20;;
24086;SDS011;22893;50.572;7.234;2022-11-20T10:21:42;9.80;;;5.10;;
24086;SDS011;22893;50.572;7.234;2022-11-20T10:27:06;11.10;;;4.60;;
24086;SDS011;22893;50.572;7.234;2022-11-20T10:29:39;13.43;;;4.67;;
24086;SDS011;22893;50.572;7.234;2022-11-20T10:32:20;9.95;;;3.95;;
24086;SDS011;22893;50.572;7.234;2022-11-20T10:35:00;8.85;;;4.30;;
24086;SDS011;22893;50.572;7.234;2022-11-20T10:37:32;13.53;;;4.92;;
24086;SDS011;22893;50.572;7.234;2022-11-20T10:42:54;10.93;;;4.20;;
24086;SDS011;22893;50.572;7.234;2022-11-20T10:47:56;7.53;;;4.33;;
24086;SDS011;22893;50.572;7.234;2022-11-20T10:53:42;9.80;;;3.87;;
24086;SDS011;22893;50.572;7.234;2022-11-20T10:56:20;9.08;;;3.77;;
24086;SDS011;22893;50.572;7.234;2022-11-20T10:59:04;11.65;;;4.30;;
24086;SDS011;22893;50.572;7.234;2022-11-20T11:01:42;8.40;;;4.03;;
24086;SDS011;22893;50.572;7.234;2022-11-20T11:04:23;9.55;;;4.12;;
24086;SDS011;22893;50.572;7.234;2022-11-20T11:06:49;8.38;;;4.67;;
24086;SDS011;22893;50.572;7.234;2022-11-20T11:09:21;9.55;;;4.22;;
24086;SDS011;22893;50.572;7.234;2022-11-20T11:11:50;8.75;;;4.00;;
24086;SDS011;22893;50.572;7.234;2022-11-20T11:14:18;10.50;;;4.10;;
24086;SDS011;22893;50.572;7.234;2022-11-20T11:16:49;11.80;;;4.15;;
24086;SDS011;22893;50.572;7.234;2022-11-20T11:19:22;8.35;;;4.03;;
24086;SDS011;22893;50.572;7.234;2022-11-20T11:21:50;8.13;;;3.45;;
24086;SDS011;22893;50.572;7.234;2022-11-20T11:24:21;8.60;;;4.28;;
24086;SDS011;22893;50.572;7.234;2022-11-20T11:26:58;9.28;;;3.95;;
24086;SDS011;22893;50.572;7.234;2022-11-20T11:29:25;9.73;;;3.83;;
24086;SDS011;22893;50.572;7.234;2022-11-20T11:32:13;10.85;;;3.27;;
24086;SDS011;22893;50.572;7.234;2022-11-20T11:34:43;8.68;;;3.98;;
24086;SDS011;22893;50.572;7.234;2022-11-20T11:37:13;7.95;;;4.55;;
24086;SDS011;22893;50.572;7.234;2022-11-20T11:39:42;7.50;;;3.45;;
24086;SDS011;22893;50.572;7.234;2022-11-20T11:42:16;6.05;;;3.70;;
24086;SDS011;22893;50.572;7.234;2022-11-20T11:44:45;7.00;;;2.95;;
24086;SDS011;22893;50.572;7.234;2022-11-20T11:47:34;8.53;;;3.80;;
24086;SDS011;22893;50.572;7.234;2022-11-20T11:53:01;7.92;;;3.65;;
24086;SDS011;22893;50.572;7.234;2022-11-20T12:00:47;6.72;;;2.65;;
24086;SDS011;22893;50.572;7.234;2022-11-20T12:03:24;7.17;;;3.50;;
24086;SDS011;22893;50.572;7.234;2022-11-20T12:05:59;8.08;;;2.98;;
24086;SDS011;22893;50.572;7.234;2022-11-20T12:08:32;6.28;;;2.95;;
24086;SDS011;22893;50.572;7.234;2022-11-20T12:11:23;8.28;;;4.05;;
24086;SDS011;22893;50.572;7.234;2022-11-20T12:14:26;7.33;;;3.50;;
24086;SDS011;22893;50.572;7.234;2022-11-20T12:17:01;8.60;;;3.52;;
24086;SDS011;22893;50.572;7.234;2022-11-20T12:19:33;9.88;;;3.47;;
24086;SDS011;22893;50.572;7.234;2022-11-20T12:22:24;9.00;;;3.65;;
24086;SDS011;22893;50.572;7.234;2022-11-20T12:25:10;8.48;;;3.33;;
24086;SDS011;22893;50.572;7.234;2022-11-20T12:30:41;8.95;;;3.67;;
24086;SDS011;22893;50.572;7.234;2022-11-20T12:33:11;7.65;;;3.08;;
24086;SDS011;22893;50.572;7.234;2022-11-20T12:53:40;7.60;;;2.70;;
24086;SDS011;22893;50.572;7.234;2022-11-20T12:59:23;8.85;;;3.58;;
24086;SDS011;22893;50.572;7.234;2022-11-20T13:02:03;6.80;;;2.87;;
24086;SDS011;22893;50.572;7.234;2022-11-20T13:07:10;5.97;;;2.80;;
24086;SDS011;22893;50.572;7.234;2022-11-20T13:09:45;5.40;;;2.83;;
24086;SDS011;22893;50.572;7.234;2022-11-20T13:12:15;5.90;;;2.77;;
24086;SDS011;22893;50.572;7.234;2022-11-20T13:14:54;6.55;;;2.60;;
24086;SDS011;22893;50.572;7.234;2022-11-20T13:17:43;5.62;;;2.85;;
24086;SDS011;22893;50.572;7.234;2022-11-20T13:20:27;4.90;;;2.22;;
24086;SDS011;22893;50.572;7.234;2022-11-20T13:22:56;5.10;;;2.35;;
24086;SDS011;22893;50.572;7.234;2022-11-20T13:25:25;5.95;;;2.65;;
24086;SDS011;22893;50.572;7.234;2022-11-20T13:27:55;9.08;;;3.15;;
24086;SDS011;22893;50.572;7.234;2022-11-20T13:30:25;5.53;;;3.00;;
24086;SDS011;22893;50.572;7.234;2022-11-20T13:32:54;5.75;;;3.10;;
24086;SDS011;22893;50.572;7.234;2022-11-20T13:35:32;8.23;;;3.12;;
24086;SDS011;22893;50.572;7.234;2022-11-20T13:40:37;5.58;;;2.55;;
24086;SDS011;22893;50.572;7.234;2022-11-20T13:43:19;5.35;;;2.62;;
24086;SDS011;22893;50.572;7.234;2022-11-20T13:46:04;6.05;;;2.30;;
24086;SDS011;22893;50.572;7.234;2022-11-20T13:48:43;3.77;;;2.40;;
24086;SDS011;22893;50.572;7.234;2022-11-20T13:51:11;6.45;;;2.47;;
24086;SDS011;22893;50.572;7.234;2022-11-20T13:53:47;6.35;;;2.90;;
24086;SDS011;22893;50.572;7.234;2022-11-20T14:02:10;5.22;;;2.67;;
24086;SDS011;22893;50.572;7.234;2022-11-20T14:04:42;4.65;;;2.08;;
24086;SDS011;22893;50.572;7.234;2022-11-20T14:07:13;5.62;;;2.85;;
24086;SDS011;22893;50.572;7.234;2022-11-20T14:09:54;4.25;;;2.50;;
24086;SDS011;22893;50.572;7.234;2022-11-20T14:12:22;3.87;;;2.05;;
24086;SDS011;22893;50.572;7.234;2022-11-20T14:14:50;5.58;;;2.42;;
24086;SDS011;22893;50.572;7.234;2022-11-20T14:19:58;5.75;;;2.98;;
24086;SDS011;22893;50.572;7.234;2022-11-20T14:22:27;5.33;;;2.45;;
24086;SDS011;22893;50.572;7.234;2022-11-20T14:25:03;5.72;;;2.37;;
24086;SDS011;22893;50.572;7.234;2022-11-20T14:27:38;3.85;;;1.80;;
24086;SDS011;22893;50.572;7.234;2022-11-20T14:30:17;4.80;;;2.55;;
24086;SDS011;22893;50.572;7.234;2022-11-20T14:32:42;3.65;;;2.55;;
24086;SDS011;22893;50.572;7.234;2022-11-20T14:35:17;5.30;;;2.58;;
24086;SDS011;22893;50.572;7.234;2022-11-20T14:37:48;4.00;;;2.33;;
24086;SDS011;22893;50.572;7.234;2022-11-20T14:42:59;5.87;;;2.45;;
24086;SDS011;22893;50.572;7.234;2022-11-20T14:45:26;4.40;;;2.45;;
24086;SDS011;22893;50.572;7.234;2022-11-20T14:47:55;5.20;;;1.92;;
24086;SDS011;22893;50.572;7.234;2022-11-20T14:50:26;4.65;;;2.22;;
24086;SDS011;22893;50.572;7.234;2022-11-20T14:52:58;4.03;;;2.47;;
24086;SDS011;22893;50.572;7.234;2022-11-20T14:55:34;4.28;;;1.90;;
24086;SDS011;22893;50.572;7.234;2022-11-20T14:58:04;4.05;;;2.40;;
24086;SDS011;22893;50.572;7.234;2022-11-20T15:00:34;4.35;;;2.12;;
24086;SDS011;22893;50.572;7.234;2022-11-20T15:03:02;4.28;;;2.17;;
24086;SDS011;22893;50.572;7.234;2022-11-20T15:05:49;5.97;;;2.15;;
24086;SDS011;22893;50.572;7.234;2022-11-20T15:08:18;7.67;;;2.42;;
24086;SDS011;22893;50.572;7.234;2022-11-20T15:10:46;4.95;;;2.02;;
24086;SDS011;22893;50.572;7.234;2022-11-20T15:13:22;5.53;;;2.47;;
24086;SDS011;22893;50.572;7.234;2022-11-20T15:15:49;4.08;;;2.30;;
24086;SDS011;22893;50.572;7.234;2022-11-20T15:18:26;5.05;;;2.27;;
24086;SDS011;22893;50.572;7.234;2022-11-20T15:20:50;3.95;;;2.37;;
24086;SDS011;22893;50.572;7.234;2022-11-20T15:23:19;5.30;;;2.37;;
24086;SDS011;22893;50.572;7.234;2022-11-20T15:25:46;4.87;;;2.50;;
24086;SDS011;22893;50.572;7.234;2022-11-20T15:28:19;4.20;;;2.10;;
24086;SDS011;22893;50.572;7.234;2022-11-20T15:30:48;3.92;;;2.35;;
24086;SDS011;22893;50.572;7.234;2022-11-20T15:33:16;6.28;;;2.42;;
24086;SDS011;22893;50.572;7.234;2022-11-20T15:35:45;6.50;;;3.30;;
24086;SDS011;22893;50.572;7.234;2022-11-20T15:38:12;8.13;;;2.87;;
24086;SDS011;22893;50.572;7.234;2022-11-20T15:40:40;6.80;;;2.62;;
24086;SDS011;22893;50.572;7.234;2022-11-20T15:43:07;5.80;;;2.33;;
24086;SDS011;22893;50.572;7.234;2022-11-20T15:45:45;6.15;;;2.40;;
24086;SDS011;22893;50.572;7.234;2022-11-20T15:48:16;9.58;;;3.15;;
24086;SDS011;22893;50.572;7.234;2022-11-20T15:50:50;4.95;;;2.75;;
24086;SDS011;22893;50.572;7.234;2022-11-20T15:53:21;5.85;;;3.72;;
24086;SDS011;22893;50.572;7.234;2022-11-20T15:55:49;5.92;;;2.95;;
24086;SDS011;22893;50.572;7.234;2022-11-20T15:58:16;4.70;;;2.72;;
24086;SDS011;22893;50.572;7.234;2022-11-20T16:00:44;6.08;;;3.33;;
24086;SDS011;22893;50.572;7.234;2022-11-20T16:03:12;9.45;;;3.62;;
24086;SDS011;22893;50.572;7.234;2022-11-20T16:05:42;9.20;;;2.60;;
24086;SDS011;22893;50.572;7.234;2022-11-20T16:08:11;8.18;;;3.37;;
24086;SDS011;22893;50.572;7.234;2022-11-20T16:10:44;6.62;;;2.83;;
24086;SDS011;22893;50.572;7.234;2022-11-20T16:13:17;6.12;;;2.30;;
24086;SDS011;22893;50.572;7.234;2022-11-20T16:16:01;8.10;;;3.02;;
24086;SDS011;22893;50.572;7.234;2022-11-20T16:18:36;5.30;;;2.20;;
24086;SDS011;22893;50.572;7.234;2022-11-20T16:21:10;5.90;;;2.55;;
24086;SDS011;22893;50.572;7.234;2022-11-20T16:23:37;7.03;;;3.02;;
24086;SDS011;22893;50.572;7.234;2022-11-20T16:26:13;6.50;;;3.12;;
24086;SDS011;22893;50.572;7.234;2022-11-20T16:28:43;7.70;;;2.75;;
24086;SDS011;22893;50.572;7.234;2022-11-20T16:31:11;9.23;;;2.52;;
24086;SDS011;22893;50.572;7.234;2022-11-20T16:33:41;3.75;;;2.20;;
24086;SDS011;22893;50.572;7.234;2022-11-20T16:36:13;3.95;;;2.37;;
24086;SDS011;22893;50.572;7.234;2022-11-20T16:38:41;6.58;;;2.25;;
24086;SDS011;22893;50.572;7.234;2022-11-20T16:41:09;6.58;;;3.00;;
24086;SDS011;22893;50.572;7.234;2022-11-20T16:43:50;3.50;;;1.90;;
24086;SDS011;22893;50.572;7.234;2022-11-20T16:46:13;4.55;;;1.95;;
24086;SDS011;22893;50.572;7.234;2022-11-20T16:48:42;7.50;;;2.77;;
24086;SDS011;22893;50.572;7.234;2022-11-20T16:51:11;5.80;;;2.35;;
24086;SDS011;22893;50.572;7.234;2022-11-20T16:53:39;7.05;;;3.15;;
24086;SDS011;22893;50.572;7.234;2022-11-20T16:56:14;7.78;;;1.90;;
24086;SDS011;22893;50.572;7.234;2022-11-20T16:58:44;4.33;;;2.30;;
24086;SDS011;22893;50.572;7.234;2022-11-20T17:01:15;11.15;;;2.40;;
24086;SDS011;22893;50.572;7.234;2022-11-20T17:03:46;5.95;;;2.17;;
24086;SDS011;22893;50.572;7.234;2022-11-20T17:06:29;4.95;;;1.80;;
24086;SDS011;22893;50.572;7.234;2022-11-20T17:08:58;2.83;;;1.90;;
24086;SDS011;22893;50.572;7.234;2022-11-20T17:11:26;9.10;;;2.55;;
24086;SDS011;22893;50.572;7.234;2022-11-20T17:13:54;4.47;;;2.10;;
24086;SDS011;22893;50.572;7.234;2022-11-20T17:16:25;4.37;;;2.00;;
24086;SDS011;22893;50.572;7.234;2022-11-20T17:18:58;5.85;;;2.75;;
24086;SDS011;22893;50.572;7.234;2022-11-20T17:21:22;4.80;;;2.10;;
24086;SDS011;22893;50.572;7.234;2022-11-20T17:23:49;2.87;;;1.77;;
24086;SDS011;22893;50.572;7.234;2022-11-20T17:26:22;7.22;;;2.02;;
24086;SDS011;22893;50.572;7.234;2022-11-20T17:28:55;4.05;;;1.98;;
24086;SDS011;22893;50.572;7.234;2022-11-20T17:31:25;7.20;;;2.22;;
24086;SDS011;22893;50.572;7.234;2022-11-20T17:33:53;3.95;;;2.12;;
24086;SDS011;22893;50.572;7.234;2022-11-20T17:36:21;4.03;;;1.75;;
24086;SDS011;22893;50.572;7.234;2022-11-20T17:38:49;4.62;;;1.87;;
24086;SDS011;22893;50.572;7.234;2022-11-20T17:41:18;4.87;;;1.90;;
24086;SDS011;22893;50.572;7.234;2022-11-20T17:43:47;6.65;;;1.80;;
24086;SDS011;22893;50.572;7.234;2022-11-20T17:46:22;4.55;;;2.20;;
24086;SDS011;22893;50.572;7.234;2022-11-20T17:48:45;4.95;;;1.98;;
24086;SDS011;22893;50.572;7.234;2022-11-20T17:51:15;11.00;;;2.30;;
24086;SDS011;22893;50.572;7.234;2022-11-20T17:53:45;2.90;;;2.08;;
24086;SDS011;22893;50.572;7.234;2022-11-20T17:56:14;5.75;;;2.20;;
24086;SDS011;22893;50.572;7.234;2022-11-20T17:59:03;7.50;;;2.17;;
24086;SDS011;22893;50.572;7.234;2022-11-20T18:01:33;14.35;;;2.30;;
24086;SDS011;22893;50.572;7.234;2022-11-20T18:04:01;4.90;;;1.57;;
24086;SDS011;22893;50.572;7.234;2022-11-20T18:06:32;8.23;;;2.17;;
24086;SDS011;22893;50.572;7.234;2022-11-20T18:08:59;3.92;;;2.02;;
24086;SDS011;22893;50.572;7.234;2022-11-20T18:11:30;9.48;;;1.70;;
24086;SDS011;22893;50.572;7.234;2022-11-20T18:13:59;7.75;;;2.50;;
24086;SDS011;22893;50.572;7.234;2022-11-20T18:16:48;5.47;;;1.60;;
24086;SDS011;22893;50.572;7.234;2022-11-20T18:19:19;5.47;;;1.82;;
24086;SDS011;22893;50.572;7.234;2022-11-20T18:21:48;8.65;;;1.80;;
24086;SDS011;22893;50.572;7.234;2022-11-20T18:24:16;6.75;;;1.70;;
24086;SDS011;22893;50.572;7.234;2022-11-20T18:26:43;5.10;;;2.42;;
24086;SDS011;22893;50.572;7.234;2022-11-20T18:29:11;5.03;;;1.92;;
24086;SDS011;22893;50.572;7.234;2022-11-20T18:31:40;4.28;;;1.50;;
24086;SDS011;22893;50.572;7.234;2022-11-20T18:34:07;6.85;;;1.57;;
24086;SDS011;22893;50.572;7.234;2022-11-20T18:36:37;6.33;;;1.67;;
24086;SDS011;22893;50.572;7.234;2022-11-20T18:39:05;3.05;;;1.37;;
24086;SDS011;22893;50.572;7.234;2022-11-20T18:41:33;4.75;;;1.95;;
24086;SDS011;22893;50.572;7.234;2022-11-20T18:44:20;4.83;;;2.40;;
24086;SDS011;22893;50.572;7.234;2022-11-20T18:47:07;3.47;;;1.70;;
24086;SDS011;22893;50.572;7.234;2022-11-20T18:49:37;4.62;;;1.70;;
24086;SDS011;22893;50.572;7.234;2022-11-20T18:52:05;4.58;;;1.98;;
24086;SDS011;22893;50.572;7.234;2022-11-20T18:54:38;4.97;;;1.75;;